createdAt,value
2022-08-17T00:00:34.603Z,97011.22
2022-08-17T00:03:11.664Z,97004.78
2022-08-17T00:05:50.760Z,97002.38
2022-08-17T00:08:22.272Z,97007.53
2022-08-17T00:10:50.996Z,96999.91
2022-08-17T00:13:24.950Z,97007.97
2022-08-17T00:15:56.180Z,97015.34
2022-08-17T00:19:01.766Z,97015.75
2022-08-17T00:21:14.252Z,97015.41
2022-08-17T00:23:44.319Z,97013.97
2022-08-17T00:26:16.441Z,97004.44
2022-08-17T00:29:05.681Z,97011.38
2022-08-17T00:31:35.869Z,97012.13
2022-08-17T00:34:04.678Z,97000.06
2022-08-17T00:36:32.948Z,97010.63
2022-08-17T00:39:01.246Z,97013.81
2022-08-17T00:41:29.609Z,97000.84
2022-08-17T00:44:03.041Z,96995.94
2022-08-17T00:46:35.052Z,97006.22
2022-08-17T00:49:04.001Z,97006.16
2022-08-17T00:51:55.765Z,97001.53
2022-08-17T00:54:27.856Z,97006.22
2022-08-17T00:56:59.160Z,97012.59
2022-08-17T00:59:33.838Z,97007.28
2022-08-17T01:02:02.225Z,97011.28
2022-08-17T01:04:30.776Z,97016.78
2022-08-17T01:06:59.280Z,97007.94
2022-08-17T01:09:27.817Z,97010.78
2022-08-17T01:11:56.114Z,97000.13
2022-08-17T01:14:25.291Z,97002.75
2022-08-17T01:16:54.706Z,97009.53
2022-08-17T01:19:29.035Z,97003.25
2022-08-17T01:22:20.306Z,97001.16
2022-08-17T01:24:56.754Z,96996.28
2022-08-17T01:27:25.164Z,96990.28
2022-08-17T01:29:58.261Z,96993.69
2022-08-17T01:32:27.378Z,96991.88
2022-08-17T01:34:55.820Z,96990.84
2022-08-17T01:37:30.371Z,96992.84
2022-08-17T01:40:03.561Z,97002.03
2022-08-17T01:42:38.576Z,96996.59
2022-08-17T01:45:17.812Z,96994.47
2022-08-17T01:47:46.338Z,96997.88
2022-08-17T01:50:17.818Z,96998.75
2022-08-17T01:52:47.014Z,97006.00
2022-08-17T01:55:16.751Z,96991.91
2022-08-17T01:57:45.852Z,97002.31
2022-08-17T02:00:14.534Z,97003.88
2022-08-17T02:02:46.012Z,97002.69
2022-08-17T02:05:14.648Z,96986.22
2022-08-17T02:07:59.500Z,96998.63
2022-08-17T02:10:33.873Z,97005.91
2022-08-17T02:13:03.883Z,97006.63
2022-08-17T02:15:32.528Z,97007.44
2022-08-17T02:18:02.204Z,97005.38
2022-08-17T02:20:41.254Z,97008.81
2022-08-17T02:23:12.151Z,97004.13
2022-08-17T02:25:40.897Z,97012.41
2022-08-17T02:28:09.446Z,97013.22
2022-08-17T02:30:59.656Z,97019.16
2022-08-17T02:33:42.030Z,97012.94
2022-08-17T02:36:12.463Z,97014.53
2022-08-17T02:38:41.019Z,97021.56
2022-08-17T02:41:09.449Z,97014.53
2022-08-17T02:43:37.777Z,97016.91
2022-08-17T02:46:06.016Z,97013.81
2022-08-17T02:48:34.622Z,97014.59
2022-08-17T02:51:02.960Z,97017.72
2022-08-17T02:53:35.749Z,97015.84
2022-08-17T02:56:04.771Z,97017.44
2022-08-17T02:58:34.693Z,97020.59
2022-08-17T03:01:05.630Z,97021.63
2022-08-17T03:03:33.977Z,97025.50
2022-08-17T03:06:02.506Z,97025.28
2022-08-17T03:08:30.849Z,97027.84
2022-08-17T03:10:59.177Z,97028.38
2022-08-17T03:13:28.002Z,97028.38
2022-08-17T03:15:56.809Z,97039.06
2022-08-17T03:18:26.457Z,97034.38
2022-08-17T03:20:55.800Z,97040.63
2022-08-17T03:23:25.295Z,97052.06
2022-08-17T03:25:54.168Z,97046.88
2022-08-17T03:28:23.056Z,97051.56
2022-08-17T03:30:51.684Z,97051.03
2022-08-17T03:33:20.198Z,97057.78
2022-08-17T03:35:48.755Z,97053.09
2022-08-17T03:38:17.591Z,97054.94
2022-08-17T03:40:57.713Z,97057.78
2022-08-17T03:43:31.598Z,97051.81
2022-08-17T03:46:28.837Z,97060.91
2022-08-17T03:49:23.281Z,97051.06
2022-08-17T03:52:10.599Z,97048.19
2022-08-17T03:54:58.378Z,97055.19
2022-08-17T03:57:26.700Z,97065.09
2022-08-17T03:59:56.270Z,97067.19
2022-08-17T04:02:32.113Z,97061.97
2022-08-17T04:05:00.604Z,97059.88
2022-08-17T04:07:30.395Z,97071.09
2022-08-17T04:09:59.664Z,97069.50
2022-08-17T04:12:31.315Z,97068.47
2022-08-17T04:14:59.887Z,97072.63
2022-08-17T04:17:28.931Z,97076.28
2022-08-17T04:19:57.515Z,97067.69
2022-08-17T04:22:32.622Z,97069.25
2022-08-17T04:25:10.661Z,97076.03
2022-08-17T04:27:38.980Z,97070.84
2022-08-17T04:30:07.931Z,97074.47
2022-08-17T04:33:09.852Z,97072.91
2022-08-17T04:35:41.396Z,97083.28
2022-08-17T04:38:12.245Z,97076.97
2022-08-17T04:40:59.073Z,97075.13
2022-08-17T04:43:27.786Z,97085.50
2022-08-17T04:46:01.675Z,97087.28
2022-08-17T04:48:36.487Z,97089.91
2022-08-17T04:51:12.049Z,97083.03
2022-08-17T04:53:42.097Z,97080.88
2022-08-17T04:56:16.160Z,97085.03
2022-08-17T04:58:50.355Z,97082.31
2022-08-17T05:01:23.709Z,97075.53
2022-08-17T05:03:54.040Z,97081.19
2022-08-17T05:06:22.740Z,97082.19
2022-08-17T05:08:51.175Z,97076.84
2022-08-17T05:11:19.545Z,97084.38
2022-08-17T05:13:50.459Z,97080.44
2022-08-17T05:16:19.431Z,97088.25
2022-08-17T05:18:47.872Z,97093.63
2022-08-17T05:21:16.251Z,97095.06
2022-08-17T05:23:44.782Z,97104.25
2022-08-17T05:26:26.088Z,97103.47
2022-08-17T05:28:58.436Z,97099.56
2022-08-17T05:31:29.241Z,97101.16
2022-08-17T05:33:57.662Z,97103.22
2022-08-17T05:36:43.622Z,97112.31
2022-08-17T05:39:15.860Z,97109.94
2022-08-17T05:41:47.935Z,97111.03
2022-08-17T05:44:16.928Z,97111.47
2022-08-17T05:46:49.403Z,97117.69
2022-08-17T05:49:25.948Z,97107.88
2022-08-17T05:52:20.079Z,97098.31
2022-08-17T05:55:40.653Z,97105.94
2022-08-17T05:58:09.033Z,97100.59
2022-08-17T06:00:56.233Z,97100.72
2022-08-17T06:03:43.514Z,97107.50
2022-08-17T06:06:21.487Z,97110.22
2022-08-17T06:09:28.940Z,97102.94
2022-08-17T06:12:32.747Z,97100.13
2022-08-17T06:15:09.825Z,97109.50
2022-08-17T06:17:38.269Z,97102.94
2022-08-17T06:20:13.050Z,97093.97
2022-08-17T06:22:51.967Z,97104.00
2022-08-17T06:25:36.394Z,97100.75
2022-08-17T06:28:14.455Z,97103.47
2022-08-17T06:31:07.354Z,97107.69
2022-08-17T06:33:36.942Z,97100.56
2022-08-17T06:36:30.530Z,97092.81
2022-08-17T06:39:43.144Z,97101.44
2022-08-17T06:42:54.959Z,97102.34
2022-08-17T06:45:28.116Z,97091.16
2022-08-17T06:47:59.165Z,97085.56
2022-08-17T06:50:43.076Z,97081.53
2022-08-17T06:53:19.949Z,97077.75
2022-08-17T06:56:09.097Z,97078.25
2022-08-17T06:58:38.894Z,97081.50
2022-08-17T07:01:09.366Z,97082.38
2022-08-17T07:04:06.710Z,97084.19
2022-08-17T07:06:54.030Z,97077.75
2022-08-17T07:09:35.051Z,97083.34
2022-08-17T07:12:10.606Z,97076.94
2022-08-17T07:14:46.230Z,97069.69
2022-08-17T07:17:16.024Z,97074.63
2022-08-17T07:19:45.782Z,97074.84
2022-08-17T07:22:28.186Z,97072.34
2022-08-17T07:25:04.873Z,97071.38
2022-08-17T07:27:46.314Z,97064.84
2022-08-17T07:30:23.780Z,97070.38
2022-08-17T07:33:00.825Z,97072.28
2022-08-17T07:35:31.328Z,97065.25
2022-08-17T07:38:24.708Z,97062.50
2022-08-17T07:41:12.685Z,97067.56
2022-08-17T07:43:41.935Z,97065.72
2022-08-17T07:46:45.419Z,97061.03
2022-08-17T07:49:13.729Z,97069.34
2022-08-17T07:51:45.987Z,97056.56
2022-08-17T07:54:23.855Z,97058.88
2022-08-17T07:57:03.893Z,97064.34
2022-08-17T07:59:36.839Z,97058.88
2022-08-17T08:02:17.880Z,97062.00
2022-08-17T08:05:00.911Z,97053.06
2022-08-17T08:07:40.479Z,97054.38
2022-08-17T08:10:10.938Z,97055.09
2022-08-17T08:12:43.801Z,97053.16
2022-08-17T08:15:16.915Z,97050.72
2022-08-17T08:17:52.368Z,97046.44
2022-08-17T08:20:53.906Z,97054.91
2022-08-17T08:23:32.902Z,97045.63
2022-08-17T08:26:20.821Z,97044.84
2022-08-17T08:29:18.721Z,97033.31
2022-08-17T08:31:59.402Z,97035.69
2022-08-17T08:35:03.677Z,97024.16
2022-08-17T08:37:57.344Z,97032.72
2022-08-17T08:40:30.489Z,97025.22
2022-08-17T08:43:24.864Z,97023.06
2022-08-17T08:46:14.470Z,97032.34
2022-08-17T08:48:58.755Z,97034.38
2022-08-17T08:52:13.082Z,97026.31
2022-08-17T08:55:22.587Z,97031.16
2022-08-17T08:57:57.033Z,97027.75
2022-08-17T09:00:25.658Z,97034.28
2022-08-17T09:03:49.748Z,97028.81
2022-08-17T09:06:39.622Z,97027.28
2022-08-17T09:09:47.781Z,97018.53
2022-08-17T09:12:36.142Z,97030.09
2022-08-17T09:15:13.356Z,97026.72
2022-08-17T09:18:28.456Z,97022.16
2022-08-17T09:21:12.099Z,97017.78
2022-08-17T09:23:45.010Z,97019.63
2022-08-17T09:26:25.633Z,97019.63
2022-08-17T09:28:56.357Z,97012.97
2022-08-17T09:31:48.750Z,97015.53
2022-08-17T09:34:21.596Z,97002.88
2022-08-17T09:37:38.301Z,97013.47
2022-08-17T09:40:18.231Z,97009.25
2022-08-17T09:43:25.167Z,97009.50
2022-08-17T09:45:57.501Z,97005.56
2022-08-17T09:48:36.561Z,97004.28
2022-08-17T09:51:13.922Z,97000.47
2022-08-17T09:53:44.790Z,97005.50
2022-08-17T09:56:13.147Z,97005.84
2022-08-17T09:59:37.133Z,97010.81
2022-08-17T10:02:22.272Z,97002.31
2022-08-17T10:05:04.256Z,96994.28
2022-08-17T10:07:46.946Z,96995.63
2022-08-17T10:10:26.880Z,96995.94
2022-08-17T10:13:03.976Z,97006.06
2022-08-17T10:16:17.385Z,97001.72
2022-08-17T10:18:55.640Z,96999.31
2022-08-17T10:21:51.219Z,96999.63
2022-08-17T10:25:01.966Z,96995.84
2022-08-17T10:27:52.837Z,96988.75
2022-08-17T10:30:27.297Z,96979.91
2022-08-17T10:33:16.029Z,96974.13
2022-08-17T10:35:53.431Z,96975.22
2022-08-17T10:38:29.241Z,96971.84
2022-08-17T10:41:25.891Z,96980.78
2022-08-17T10:44:38.632Z,96983.50
2022-08-17T10:47:05.984Z,96997.09
2022-08-17T10:49:39.284Z,96986.34
2022-08-17T10:52:28.211Z,96991.16
2022-08-17T10:54:59.475Z,96995.13
2022-08-17T10:57:32.012Z,96989.94
2022-08-17T11:00:28.621Z,96987.28
2022-08-17T11:03:04.162Z,96985.31
2022-08-17T11:05:54.381Z,96983.47
2022-08-17T11:08:50.607Z,96969.09
2022-08-17T11:11:40.696Z,96963.16
2022-08-17T11:14:31.482Z,96963.59
2022-08-17T11:17:36.756Z,96963.78
2022-08-17T11:20:20.221Z,96954.47
2022-08-17T11:23:07.861Z,96950.56
2022-08-17T11:25:45.337Z,96949.16
2022-08-17T11:28:19.547Z,96947.06
2022-08-17T11:31:38.521Z,96950.91
2022-08-17T11:34:21.917Z,96954.91
2022-08-17T11:37:09.002Z,96933.50
2022-08-17T11:40:07.372Z,96935.25
2022-08-17T11:43:05.110Z,96936.94
2022-08-17T11:45:48.608Z,96940.34
2022-08-17T11:48:41.648Z,96941.16
2022-08-17T11:51:47.180Z,96954.06
2022-08-17T11:54:32.324Z,96946.56
2022-08-17T11:57:26.162Z,96949.47
2022-08-17T12:00:03.768Z,96957.13
2022-08-17T12:02:35.516Z,96948.59
2022-08-17T12:05:21.504Z,96947.09
2022-08-17T12:08:00.345Z,96939.75
2022-08-17T12:10:33.150Z,96942.19
2022-08-17T12:13:10.671Z,96943.81
2022-08-17T12:15:51.426Z,96935.69
2022-08-17T12:18:27.599Z,96938.66
2022-08-17T12:21:23.215Z,96937.63
2022-08-17T12:24:33.011Z,96933.78
2022-08-17T12:27:04.609Z,96923.59
2022-08-17T12:29:35.842Z,96935.25
2022-08-17T12:32:07.624Z,96932.09
2022-08-17T12:34:38.458Z,96922.44
2022-08-17T12:37:23.588Z,96921.19
2022-08-17T12:39:57.742Z,96920.19
2022-08-17T12:42:34.066Z,96915.13
2022-08-17T12:45:05.579Z,96911.44
2022-08-17T12:47:37.887Z,96919.56
2022-08-17T12:50:28.723Z,96911.50
2022-08-17T12:53:02.305Z,96916.00
2022-08-17T12:55:37.193Z,96910.03
2022-08-17T12:58:12.249Z,96901.03
2022-08-17T13:00:48.969Z,96903.56
2022-08-17T13:03:22.508Z,96910.53
2022-08-17T13:05:53.491Z,96899.94
2022-08-17T13:08:27.888Z,96909.72
2022-08-17T13:11:03.529Z,96907.38
2022-08-17T13:13:35.959Z,96898.75
2022-08-17T13:16:10.019Z,96905.56
2022-08-17T13:18:55.527Z,96902.72
2022-08-17T13:21:27.193Z,96907.47
2022-08-17T13:24:02.329Z,96909.94
2022-08-17T13:26:51.597Z,96903.22
2022-08-17T13:29:33.163Z,96912.41
2022-08-17T13:32:13.026Z,96914.97
2022-08-17T13:34:59.646Z,96908.34
2022-08-17T13:37:35.945Z,96906.28
2022-08-17T13:40:10.397Z,96905.59
2022-08-17T13:42:54.743Z,96902.84
2022-08-17T13:45:36.743Z,96901.25
2022-08-17T13:48:13.545Z,96904.31
2022-08-17T13:50:58.006Z,96917.97
2022-08-17T13:53:40.238Z,96900.16
2022-08-17T13:56:38.301Z,96916.25
2022-08-17T13:59:12.587Z,96910.94
2022-08-17T14:01:53.335Z,96909.91
2022-08-17T14:04:25.301Z,96904.47
2022-08-17T14:06:57.944Z,96899.94
2022-08-17T14:09:31.427Z,96896.88
2022-08-17T14:12:04.274Z,96889.19
2022-08-17T14:14:32.642Z,96895.72
2022-08-17T14:17:02.252Z,96891.75
2022-08-17T14:19:30.647Z,96889.53
2022-08-17T14:22:01.098Z,96891.03
2022-08-17T14:24:35.424Z,96889.53
2022-08-17T14:27:05.108Z,96889.66
2022-08-17T14:29:34.653Z,96892.78
2022-08-17T14:32:12.930Z,96886.66
2022-08-17T14:34:41.283Z,96887.41
2022-08-17T14:37:10.048Z,96895.59
2022-08-17T14:39:38.768Z,96890.97
2022-08-17T14:42:07.359Z,96894.03
2022-08-17T14:44:36.831Z,96890.13
2022-08-17T14:47:06.298Z,96894.94
2022-08-17T14:49:34.541Z,96896.94
2022-08-17T14:52:03.085Z,96900.31
2022-08-17T14:54:34.368Z,96897.06
2022-08-17T14:57:23.866Z,96894.66
2022-08-17T14:59:55.148Z,96892.38
2022-08-17T15:02:30.515Z,96894.78
2022-08-17T15:05:00.488Z,96888.00
2022-08-17T15:07:30.486Z,96899.59
2022-08-17T15:10:02.470Z,96888.88
2022-08-17T15:12:34.064Z,96897.09
2022-08-17T15:15:04.716Z,96900.25
2022-08-17T15:17:45.186Z,96902.91
2022-08-17T15:20:26.598Z,96895.34
2022-08-17T15:22:59.147Z,96897.66
2022-08-17T15:25:29.409Z,96894.78
2022-08-17T15:27:58.371Z,96889.66
2022-08-17T15:30:27.301Z,96894.38
2022-08-17T15:32:57.279Z,96901.47
2022-08-17T15:35:28.957Z,96896.97
2022-08-17T15:38:07.904Z,96890.75
2022-08-17T15:40:43.776Z,96894.06
2022-08-17T15:43:15.772Z,96898.34
2022-08-17T15:45:44.746Z,96903.69
2022-08-17T15:48:41.811Z,96886.94
2022-08-17T15:51:17.084Z,96889.78
2022-08-17T15:53:51.469Z,96884.00
2022-08-17T15:56:20.107Z,96892.38
2022-08-17T15:58:48.769Z,96894.00
2022-08-17T16:02:21.598Z,96889.94
2022-08-17T16:04:26.931Z,96891.59
2022-08-17T16:07:00.769Z,96892.41
2022-08-17T16:09:29.421Z,96892.91
2022-08-17T16:11:57.821Z,96900.16
2022-08-17T16:14:32.510Z,96900.50
2022-08-17T16:17:04.785Z,96904.53
2022-08-17T16:19:44.194Z,96904.41
2022-08-17T16:22:12.835Z,96908.56
2022-08-17T16:24:47.681Z,96907.03
2022-08-17T16:27:26.214Z,96911.00
2022-08-17T16:29:55.484Z,96914.91
2022-08-17T16:32:31.818Z,96907.88
2022-08-17T16:35:03.651Z,96916.53
2022-08-17T16:37:33.062Z,96909.47
2022-08-17T16:40:07.111Z,96911.44
2022-08-17T16:42:37.749Z,96918.81
2022-08-17T16:45:13.315Z,96921.66
2022-08-17T16:47:44.300Z,96916.44
2022-08-17T16:50:14.540Z,96924.06
2022-08-17T16:52:43.006Z,96925.03
2022-08-17T16:55:13.185Z,96924.13
2022-08-17T16:57:48.548Z,96927.53
2022-08-17T17:00:21.273Z,96934.69
2022-08-17T17:02:50.570Z,96940.56
2022-08-17T17:05:34.802Z,96935.66
2022-08-17T17:08:13.084Z,96942.59
2022-08-17T17:10:49.320Z,96943.66
2022-08-17T17:13:27.114Z,96947.81
2022-08-17T17:16:09.584Z,96949.59
2022-08-17T17:19:01.282Z,96949.44
2022-08-17T17:22:15.311Z,96958.97
2022-08-17T17:25:17.533Z,96960.66
2022-08-17T17:28:18.097Z,96974.47
2022-08-17T17:31:06.737Z,96981.44
2022-08-17T17:33:41.065Z,96978.59
2022-08-17T17:36:48.426Z,96988.94
2022-08-17T17:39:41.690Z,96989.97
2022-08-17T17:42:14.897Z,97001.00
2022-08-17T17:44:59.906Z,97000.94
2022-08-17T17:47:29.872Z,96999.47
2022-08-17T17:50:00.553Z,96995.53
2022-08-17T17:52:38.501Z,97008.16
2022-08-17T17:55:34.590Z,97013.88
2022-08-17T17:58:24.640Z,97017.00
2022-08-17T18:01:50.249Z,97017.66
2022-08-17T18:04:42.660Z,97031.69
2022-08-17T18:07:30.661Z,97033.47
2022-08-17T18:10:04.891Z,97034.31
2022-08-17T18:13:26.570Z,97048.00
2022-08-17T18:15:56.009Z,97037.25
2022-08-17T18:18:40.776Z,97038.63
2022-08-17T18:21:19.839Z,97037.28
2022-08-17T18:23:56.453Z,97044.44
2022-08-17T18:26:34.006Z,97052.03
2022-08-17T18:29:24.186Z,97053.72
2022-08-17T18:32:28.262Z,97048.31
2022-08-17T18:34:59.295Z,97056.06
2022-08-17T18:37:41.996Z,97059.63
2022-08-17T18:40:24.853Z,97049.69
2022-08-17T18:43:00.873Z,97054.00
2022-08-17T18:45:36.322Z,97056.97
2022-08-17T18:48:06.291Z,97060.06
2022-08-17T18:51:01.175Z,97068.03
2022-08-17T18:53:38.069Z,97063.00
2022-08-17T18:56:31.562Z,97070.78
2022-08-17T18:59:27.779Z,97072.34
2022-08-17T19:02:10.180Z,97069.69
2022-08-17T19:05:04.252Z,97074.06
2022-08-17T19:07:58.752Z,97076.84
2022-08-17T19:10:33.718Z,97081.81
2022-08-17T19:13:24.349Z,97074.50
2022-08-17T19:16:11.727Z,97072.78
2022-08-17T19:19:07.421Z,97079.19
2022-08-17T19:21:47.292Z,97076.94
2022-08-17T19:24:19.998Z,97077.00
2022-08-17T19:27:27.195Z,97082.31
2022-08-17T19:30:08.774Z,97086.53
2022-08-17T19:32:37.926Z,97078.78
2022-08-17T19:35:17.513Z,97079.34
2022-08-17T19:38:36.476Z,97084.91
2022-08-17T19:41:12.667Z,97084.91
2022-08-17T19:43:41.220Z,97079.34
2022-08-17T19:46:20.319Z,97086.75
2022-08-17T19:48:57.107Z,97087.69
2022-08-17T19:51:41.150Z,97081.59
2022-08-17T19:54:24.305Z,97087.97
2022-08-17T19:57:11.015Z,97092.75
2022-08-17T19:59:59.561Z,97094.19
2022-08-17T20:02:43.800Z,97099.50
2022-08-17T20:05:19.388Z,97113.00
2022-08-17T20:08:33.978Z,97114.53
2022-08-17T20:11:21.910Z,97106.66
2022-08-17T20:13:57.732Z,97110.09
2022-08-17T20:16:26.143Z,97108.84
2022-08-17T20:19:05.378Z,97110.06
2022-08-17T20:22:03.695Z,97116.66
2022-08-17T20:24:59.326Z,97115.47
2022-08-17T20:27:31.597Z,97111.09
2022-08-17T20:30:12.293Z,97105.97
2022-08-17T20:32:52.943Z,97123.00
2022-08-17T20:35:35.903Z,97122.16
2022-08-17T20:38:37.535Z,97114.66
2022-08-17T20:41:10.284Z,97113.50
2022-08-17T20:43:38.685Z,97119.72
2022-08-17T20:46:39.667Z,97121.94
2022-08-17T20:49:23.381Z,97116.72
2022-08-17T20:52:10.015Z,97128.16
2022-08-17T20:54:49.125Z,97127.97
2022-08-17T20:57:32.810Z,97123.81
2022-08-17T21:00:19.870Z,97126.69
2022-08-17T21:02:51.534Z,97122.31
2022-08-17T21:05:34.474Z,97125.16
2022-08-17T21:08:17.680Z,97115.59
2022-08-17T21:10:46.782Z,97118.59
2022-08-17T21:13:15.680Z,97122.31
2022-08-17T21:15:50.659Z,97118.28
2022-08-17T21:18:33.577Z,97119.91
2022-08-17T21:21:26.711Z,97124.03
2022-08-17T21:24:27.330Z,97119.50
2022-08-17T21:27:22.500Z,97128.56
2022-08-17T21:30:06.660Z,97133.00
2022-08-17T21:32:41.809Z,97134.84
2022-08-17T21:35:30.293Z,97129.78
2022-08-17T21:38:03.160Z,97134.63
2022-08-17T21:40:33.412Z,97143.72
2022-08-17T21:43:23.749Z,97146.78
2022-08-17T21:46:11.143Z,97143.75
2022-08-17T21:48:48.080Z,97142.41
2022-08-17T21:51:18.311Z,97147.50
2022-08-17T21:53:56.013Z,97146.44
2022-08-17T21:56:46.319Z,97136.13
2022-08-17T21:59:26.368Z,97144.94
2022-08-17T22:02:02.063Z,97139.69
2022-08-17T22:04:31.619Z,97137.75
2022-08-17T22:07:02.173Z,97145.56
2022-08-17T22:09:32.832Z,97140.06
2022-08-17T22:12:12.625Z,97144.19
2022-08-17T22:14:53.370Z,97146.25
2022-08-17T22:17:23.281Z,97143.22
2022-08-17T22:20:02.979Z,97137.28
2022-08-17T22:23:19.057Z,97141.53
2022-08-17T22:26:04.427Z,97146.59
2022-08-17T22:29:09.006Z,97141.06
2022-08-17T22:31:54.306Z,97148.59
2022-08-17T22:34:22.695Z,97145.75
2022-08-17T22:36:50.939Z,97153.88
2022-08-17T22:39:26.473Z,97143.53
2022-08-17T22:42:01.219Z,97156.34
2022-08-17T22:44:32.245Z,97145.81
2022-08-17T22:47:39.068Z,97151.22
2022-08-17T22:50:30.007Z,97147.00
2022-08-17T22:53:19.092Z,97142.63
2022-08-17T22:56:13.219Z,97136.84
2022-08-17T22:59:12.772Z,97134.94
2022-08-17T23:01:41.411Z,97130.22
2022-08-17T23:04:16.320Z,97139.56
2022-08-17T23:06:44.584Z,97132.34
2022-08-17T23:09:13.195Z,97139.19
2022-08-17T23:11:48.999Z,97137.41
2022-08-17T23:14:20.019Z,97141.16
2022-08-17T23:16:50.486Z,97128.91
2022-08-17T23:19:20.960Z,97140.53
2022-08-17T23:21:55.546Z,97141.53
2022-08-17T23:24:29.100Z,97135.72
2022-08-17T23:26:57.524Z,97133.34
2022-08-17T23:29:27.013Z,97138.13
2022-08-17T23:31:58.021Z,97128.22
2022-08-17T23:34:28.305Z,97137.50
2022-08-17T23:36:56.691Z,97132.03
2022-08-17T23:39:28.103Z,97131.22
2022-08-17T23:41:58.037Z,97128.47
2022-08-17T23:44:26.824Z,97124.94
2022-08-17T23:46:55.218Z,97125.69
2022-08-17T23:49:25.367Z,97126.94
2022-08-17T23:51:56.827Z,97123.75
2022-08-17T23:54:29.952Z,97134.72
2022-08-17T23:56:58.257Z,97125.63
2022-08-17T23:59:27.773Z,97129.53
